createdAt,value
2019-05-03T00:00:25.699Z,1010.44
2019-05-03T00:02:25.688Z,1010.46
2019-05-03T00:03:25.685Z,1010.42
2019-05-03T00:04:25.684Z,1010.43
2019-05-03T00:05:25.699Z,1010.43
2019-05-03T00:07:25.675Z,1010.45
2019-05-03T00:08:25.690Z,1010.48
2019-05-03T00:09:25.699Z,1010.51
2019-05-03T00:10:25.710Z,1010.50
2019-05-03T00:13:25.717Z,1010.48
2019-05-03T00:14:25.671Z,1010.46
2019-05-03T00:15:25.694Z,1010.46
2019-05-03T00:16:25.699Z,1010.47
2019-05-03T00:18:25.719Z,1010.49
2019-05-03T00:19:25.697Z,1010.46
2019-05-03T00:20:25.721Z,1010.50
2019-05-03T00:21:25.701Z,1010.46
2019-05-03T00:23:25.706Z,1010.51
2019-05-03T00:24:25.726Z,1010.50
2019-05-03T00:25:25.711Z,1010.50
2019-05-03T00:26:25.680Z,1010.45
2019-05-03T00:29:25.727Z,1010.52
2019-05-03T00:30:25.727Z,1010.54
2019-05-03T00:31:25.721Z,1010.49
2019-05-03T00:32:25.707Z,1010.51
2019-05-03T00:34:25.713Z,1010.54
2019-05-03T00:35:25.726Z,1010.53
2019-05-03T00:36:25.718Z,1010.50
2019-05-03T00:37:25.726Z,1010.55
2019-05-03T00:39:25.708Z,1010.50
2019-05-03T00:40:25.710Z,1010.50
2019-05-03T00:41:25.726Z,1010.46
2019-05-03T00:42:25.703Z,1010.40
2019-05-03T00:44:25.696Z,1010.46
2019-05-03T00:45:25.713Z,1010.45
2019-05-03T00:46:25.704Z,1010.46
2019-05-03T00:47:25.721Z,1010.46
2019-05-03T00:50:25.774Z,1010.47
2019-05-03T00:51:25.751Z,1010.43
2019-05-03T00:52:25.727Z,1010.44
2019-05-03T00:53:25.727Z,1010.47
2019-05-03T00:55:25.757Z,1010.48
2019-05-03T00:56:25.748Z,1010.45
2019-05-03T00:57:25.725Z,1010.51
2019-05-03T00:58:25.759Z,1010.50
2019-05-03T01:01:25.741Z,1010.48
2019-05-03T01:02:26.352Z,1010.44
2019-05-03T01:03:25.753Z,1010.44
2019-05-03T01:04:25.746Z,1010.47
2019-05-03T01:06:25.737Z,1010.45
2019-05-03T01:07:25.768Z,1010.44
2019-05-03T01:08:25.761Z,1010.45
2019-05-03T01:09:25.768Z,1010.51
2019-05-03T01:11:25.760Z,1010.46
2019-05-03T01:12:25.739Z,1010.51
2019-05-03T01:13:25.747Z,1010.53
2019-05-03T01:14:25.746Z,1010.51
2019-05-03T01:17:25.740Z,1010.49
2019-05-03T01:18:25.782Z,1010.49
2019-05-03T01:19:25.750Z,1010.51
2019-05-03T01:20:25.787Z,1010.51
2019-05-03T01:22:25.782Z,1010.52
2019-05-03T01:23:25.777Z,1010.56
2019-05-03T01:24:25.872Z,1010.56
2019-05-03T01:25:32.404Z,1010.57
2019-05-03T01:27:25.752Z,1010.54
2019-05-03T01:28:25.791Z,1010.51
2019-05-03T01:29:25.775Z,1010.51
2019-05-03T01:30:25.790Z,1010.52
2019-05-03T01:32:25.774Z,1010.49
2019-05-03T01:33:25.769Z,1010.47
2019-05-03T01:34:25.792Z,1010.54
2019-05-03T01:35:25.763Z,1010.56
2019-05-03T01:37:25.787Z,1010.51
2019-05-03T01:38:25.794Z,1010.53
2019-05-03T01:39:25.778Z,1010.55
2019-05-03T01:40:25.821Z,1010.53
2019-05-03T01:42:25.793Z,1010.52
2019-05-03T01:43:25.788Z,1010.51
2019-05-03T01:44:25.818Z,1010.57
2019-05-03T01:45:25.775Z,1010.52
2019-05-03T01:47:25.797Z,1010.57
2019-05-03T01:48:25.804Z,1010.59
2019-05-03T01:49:25.819Z,1010.54
2019-05-03T01:50:25.799Z,1010.55
2019-05-03T01:53:25.793Z,1010.59
2019-05-03T01:54:25.771Z,1010.57
2019-05-03T01:55:25.801Z,1010.55
2019-05-03T01:56:25.799Z,1010.55
2019-05-03T01:58:25.806Z,1010.58
2019-05-03T01:59:25.805Z,1010.58
2019-05-03T02:00:25.936Z,1010.62
2019-05-03T02:01:25.795Z,1010.57
2019-05-03T02:03:25.830Z,1010.59
2019-05-03T02:04:25.808Z,1010.68
2019-05-03T02:05:25.833Z,1010.62
2019-05-03T02:06:25.816Z,1010.61
2019-05-03T02:09:25.839Z,1010.73
2019-05-03T02:10:25.790Z,1010.74
2019-05-03T02:11:25.841Z,1010.63
2019-05-03T02:12:25.824Z,1010.70
2019-05-03T02:14:25.814Z,1010.70
2019-05-03T02:15:25.835Z,1010.68
2019-05-03T02:16:25.800Z,1010.70
2019-05-03T02:17:25.846Z,1010.70
2019-05-03T02:19:25.825Z,1010.70
2019-05-03T02:20:25.845Z,1010.71
2019-05-03T02:21:25.845Z,1010.70
2019-05-03T02:22:25.772Z,1010.68
2019-05-03T02:24:25.823Z,1010.73
2019-05-03T02:25:25.841Z,1010.73
2019-05-03T02:26:25.855Z,1010.81
2019-05-03T02:27:25.833Z,1010.77
2019-05-03T02:29:25.853Z,1010.82
2019-05-03T02:30:25.809Z,1010.86
2019-05-03T02:31:25.838Z,1010.85
2019-05-03T02:32:25.846Z,1010.88
2019-05-03T02:35:25.824Z,1010.86
2019-05-03T02:36:25.837Z,1010.90
2019-05-03T02:37:25.870Z,1010.84
2019-05-03T02:38:25.837Z,1010.86
2019-05-03T02:40:25.837Z,1010.90
2019-05-03T02:41:25.849Z,1010.91
2019-05-03T02:42:26.499Z,1010.91
2019-05-03T02:43:26.356Z,1010.90
2019-05-03T02:45:26.021Z,1010.95
2019-05-03T02:46:25.871Z,1010.93
2019-05-03T02:47:26.481Z,1010.90
2019-05-03T02:48:25.845Z,1010.90
2019-05-03T02:50:26.159Z,1010.92
2019-05-03T02:51:26.238Z,1010.97
2019-05-03T02:52:25.842Z,1010.98
2019-05-03T02:53:26.179Z,1010.98
2019-05-03T02:55:26.320Z,1010.98
2019-05-03T02:56:26.251Z,1010.93
2019-05-03T02:57:26.033Z,1010.96
2019-05-03T02:58:25.872Z,1010.95
2019-05-03T03:00:25.862Z,1010.92
2019-05-03T03:01:26.582Z,1010.91
2019-05-03T03:02:26.468Z,1010.89
2019-05-03T03:03:25.883Z,1010.87
2019-05-03T03:05:25.879Z,1010.88
2019-05-03T03:06:26.787Z,1010.93
2019-05-03T03:07:26.065Z,1010.88
2019-05-03T03:08:25.859Z,1010.91
2019-05-03T03:10:26.544Z,1010.97
2019-05-03T03:11:26.198Z,1011.01
2019-05-03T03:12:25.907Z,1010.97
2019-05-03T03:13:25.880Z,1010.98
2019-05-03T03:15:25.875Z,1010.96
2019-05-03T03:16:25.889Z,1010.98
2019-05-03T03:17:25.912Z,1010.92
2019-05-03T03:18:25.922Z,1010.96
2019-05-03T03:20:25.881Z,1011.02
2019-05-03T03:21:26.166Z,1011.05
2019-05-03T03:22:26.134Z,1011.06
2019-05-03T03:23:26.431Z,1011.04
2019-05-03T03:26:37.511Z,1011.03
2019-05-03T03:27:25.994Z,1011.01
2019-05-03T03:28:25.877Z,1011.02
2019-05-03T03:29:25.900Z,1011.07
2019-05-03T03:31:28.426Z,1011.08
2019-05-03T03:32:29.152Z,1011.06
2019-05-03T03:33:28.024Z,1011.10
2019-05-03T03:34:28.107Z,1011.08
2019-05-03T03:36:43.587Z,1011.10
2019-05-03T03:37:26.117Z,1011.09
2019-05-03T03:38:26.251Z,1011.10
2019-05-03T03:39:26.295Z,1011.09
2019-05-03T03:41:25.887Z,1011.13
2019-05-03T03:42:25.913Z,1011.04
2019-05-03T03:43:26.091Z,1011.08
2019-05-03T03:44:25.974Z,1011.09
2019-05-03T03:46:25.908Z,1011.14
2019-05-03T03:47:27.220Z,1011.08
2019-05-03T03:48:26.545Z,1011.15
2019-05-03T03:49:26.415Z,1011.15
2019-05-03T03:51:26.507Z,1011.15
2019-05-03T03:52:25.902Z,1011.13
2019-05-03T03:53:26.595Z,1011.21
2019-05-03T03:54:26.187Z,1011.21
2019-05-03T03:57:25.921Z,1011.24
2019-05-03T03:58:27.013Z,1011.38
2019-05-03T03:59:26.871Z,1011.31
2019-05-03T04:00:26.059Z,1011.35
2019-05-03T04:02:26.647Z,1011.32
2019-05-03T04:03:26.319Z,1011.40
2019-05-03T04:04:26.286Z,1011.40
2019-05-03T04:05:25.930Z,1011.35
2019-05-03T04:07:26.356Z,1011.43
2019-05-03T04:08:25.945Z,1011.45
2019-05-03T04:09:26.080Z,1011.50
2019-05-03T04:10:26.398Z,1011.50
2019-05-03T04:12:26.798Z,1011.55
2019-05-03T04:13:25.910Z,1011.56
2019-05-03T04:14:25.938Z,1011.56
2019-05-03T04:15:26.271Z,1011.58
2019-05-03T04:17:26.385Z,1011.61
2019-05-03T04:18:25.943Z,1011.64
2019-05-03T04:19:25.935Z,1011.65
2019-05-03T04:20:26.034Z,1011.63
2019-05-03T04:22:25.970Z,1011.61
2019-05-03T04:23:26.627Z,1011.66
2019-05-03T04:24:26.030Z,1011.68
2019-05-03T04:26:29.495Z,1011.69
2019-05-03T04:27:27.581Z,1011.72
2019-05-03T04:28:25.947Z,1011.78
2019-05-03T04:29:25.940Z,1011.75
2019-05-03T04:32:28.951Z,1011.80
2019-05-03T04:33:26.888Z,1011.85
2019-05-03T04:34:26.447Z,1011.77
2019-05-03T04:35:26.531Z,1011.87
2019-05-03T04:37:26.686Z,1011.82
2019-05-03T04:38:26.121Z,1011.84
2019-05-03T04:39:25.945Z,1011.90
2019-05-03T04:40:26.393Z,1011.91
2019-05-03T04:42:26.044Z,1011.88
2019-05-03T04:43:26.444Z,1011.92
2019-05-03T04:44:26.165Z,1011.87
2019-05-03T04:45:26.028Z,1011.91
2019-05-03T04:47:26.675Z,1011.97
2019-05-03T04:48:25.972Z,1011.93
2019-05-03T04:49:26.388Z,1011.91
2019-05-03T04:50:26.089Z,1011.89
2019-05-03T04:52:26.178Z,1011.95
2019-05-03T04:53:26.166Z,1011.98
2019-05-03T04:54:26.147Z,1011.98
2019-05-03T04:55:26.797Z,1012.00
2019-05-03T04:57:39.328Z,1012.05
2019-05-03T04:58:26.860Z,1012.04
2019-05-03T04:59:25.976Z,1012.03
2019-05-03T05:00:26.126Z,1012.08
2019-05-03T05:02:26.533Z,1012.10
2019-05-03T05:03:26.528Z,1012.05
2019-05-03T05:04:25.966Z,1012.07
2019-05-03T05:05:26.443Z,1012.10
2019-05-03T05:07:26.497Z,1012.06
2019-05-03T05:08:25.994Z,1012.10
2019-05-03T05:09:26.065Z,1012.11
2019-05-03T05:10:26.472Z,1012.14
2019-05-03T05:12:25.982Z,1012.17
2019-05-03T05:13:25.969Z,1012.21
2019-05-03T05:14:26.078Z,1012.20
2019-05-03T05:15:26.604Z,1012.23
2019-05-03T05:17:26.370Z,1012.25
2019-05-03T05:18:26.449Z,1012.26
2019-05-03T05:19:25.988Z,1012.33
2019-05-03T05:20:26.011Z,1012.28
2019-05-03T05:22:26.002Z,1012.29
2019-05-03T05:23:25.976Z,1012.28
2019-05-03T05:24:26.005Z,1012.35
2019-05-03T05:25:25.971Z,1012.34
2019-05-03T05:28:25.968Z,1012.39
2019-05-03T05:29:25.984Z,1012.41
2019-05-03T05:30:26.004Z,1012.38
2019-05-03T05:31:26.047Z,1012.45
2019-05-03T05:33:26.009Z,1012.47
2019-05-03T05:34:26.006Z,1012.47
2019-05-03T05:35:26.025Z,1012.47
2019-05-03T05:36:25.974Z,1012.47
2019-05-03T05:38:26.016Z,1012.47
2019-05-03T05:40:26.018Z,1012.45
2019-05-03T05:41:25.997Z,1012.40
2019-05-03T05:42:25.996Z,1012.43
2019-05-03T05:43:25.994Z,1012.36
2019-05-03T05:45:26.026Z,1012.49
2019-05-03T05:46:26.016Z,1012.54
2019-05-03T05:47:26.019Z,1012.50
2019-05-03T05:48:26.018Z,1012.42
2019-05-03T05:50:26.003Z,1012.44
2019-05-03T05:51:25.971Z,1012.51
2019-05-03T05:52:26.103Z,1012.49
2019-05-03T05:53:26.020Z,1012.48
2019-05-03T05:55:26.009Z,1012.47
2019-05-03T05:56:26.023Z,1012.47
2019-05-03T05:57:26.027Z,1012.54
2019-05-03T05:58:25.995Z,1012.48
2019-05-03T06:00:26.024Z,1012.54
2019-05-03T06:01:26.045Z,1012.55
2019-05-03T06:02:26.037Z,1012.53
2019-05-03T06:03:26.071Z,1012.55
2019-05-03T06:06:26.049Z,1012.47
2019-05-03T06:07:26.048Z,1012.49
2019-05-03T06:08:26.035Z,1012.52
2019-05-03T06:09:26.005Z,1012.53
2019-05-03T06:11:25.998Z,1012.51
2019-05-03T06:12:26.024Z,1012.58
2019-05-03T06:13:26.502Z,1012.59
2019-05-03T06:14:26.038Z,1012.56
2019-05-03T06:17:26.027Z,1012.62
2019-05-03T06:18:26.027Z,1012.60
2019-05-03T06:19:26.046Z,1012.62
2019-05-03T06:20:26.037Z,1012.62
2019-05-03T06:23:26.045Z,1012.69
2019-05-03T06:24:26.059Z,1012.68
2019-05-03T06:25:26.729Z,1012.69
2019-05-03T06:27:26.040Z,1012.67
2019-05-03T06:28:26.024Z,1012.71
2019-05-03T06:29:26.011Z,1012.75
2019-05-03T06:33:26.008Z,1012.74
2019-05-03T06:34:26.044Z,1012.74
2019-05-03T06:35:26.040Z,1012.74
2019-05-03T06:36:26.058Z,1012.70
2019-05-03T06:38:26.026Z,1012.80
2019-05-03T06:39:26.083Z,1012.81
2019-05-03T06:40:26.156Z,1012.69
2019-05-03T06:41:26.064Z,1012.73
2019-05-03T06:43:26.268Z,1012.72
2019-05-03T06:44:28.638Z,1012.72
2019-05-03T06:45:26.062Z,1012.73
2019-05-03T06:46:30.114Z,1012.70
2019-05-03T06:48:28.257Z,1012.73
2019-05-03T06:49:26.030Z,1012.72
2019-05-03T06:50:28.829Z,1012.77
2019-05-03T06:51:26.036Z,1012.74
2019-05-03T06:53:26.090Z,1012.77
2019-05-03T06:54:29.859Z,1012.76
2019-05-03T06:55:26.096Z,1012.76
2019-05-03T06:56:29.018Z,1012.81
2019-05-03T06:58:33.216Z,1012.83
2019-05-03T06:59:26.041Z,1012.82
2019-05-03T07:00:26.052Z,1012.85
2019-05-03T07:01:26.079Z,1012.77
2019-05-03T07:03:26.094Z,1012.80
2019-05-03T07:04:26.098Z,1012.82
2019-05-03T07:05:26.113Z,1012.80
2019-05-03T07:06:34.494Z,1012.81
2019-05-03T07:08:26.080Z,1012.78
2019-05-03T07:09:26.085Z,1012.82
2019-05-03T07:10:26.093Z,1012.82
2019-05-03T07:11:26.098Z,1012.83
2019-05-03T07:13:26.115Z,1012.85
2019-05-03T07:14:26.102Z,1012.78
2019-05-03T07:15:26.095Z,1012.85
2019-05-03T07:16:26.119Z,1012.81
2019-05-03T07:18:26.070Z,1012.78
2019-05-03T07:19:26.108Z,1012.77
2019-05-03T07:20:26.093Z,1012.82
2019-05-03T07:21:26.110Z,1012.80
2019-05-03T07:23:26.133Z,1012.77
2019-05-03T07:24:26.122Z,1012.82
2019-05-03T07:25:26.112Z,1012.80
2019-05-03T07:26:26.093Z,1012.78
2019-05-03T07:28:26.112Z,1012.77
2019-05-03T07:29:26.113Z,1012.81
2019-05-03T07:30:26.102Z,1012.78
2019-05-03T07:31:26.095Z,1012.75
2019-05-03T07:34:26.146Z,1012.76
2019-05-03T07:35:26.127Z,1012.80
2019-05-03T07:36:28.387Z,1012.74
2019-05-03T07:37:26.074Z,1012.74
2019-05-03T07:39:26.125Z,1012.73
2019-05-03T07:40:26.113Z,1012.80
2019-05-03T07:41:27.246Z,1012.77
2019-05-03T07:42:26.154Z,1012.71
2019-05-03T07:44:26.146Z,1012.73
2019-05-03T07:45:26.144Z,1012.77
2019-05-03T07:46:26.124Z,1012.76
2019-05-03T07:47:26.125Z,1012.76
2019-05-03T07:50:26.167Z,1012.71
2019-05-03T07:51:26.139Z,1012.70
2019-05-03T07:52:26.186Z,1012.71
2019-05-03T07:53:26.121Z,1012.72
2019-05-03T07:55:26.177Z,1012.76
2019-05-03T07:56:26.106Z,1012.74
2019-05-03T07:57:26.132Z,1012.81
2019-05-03T07:58:26.145Z,1012.78
2019-05-03T08:00:26.149Z,1012.73
2019-05-03T08:01:26.129Z,1012.79
2019-05-03T08:02:27.506Z,1012.75
2019-05-03T08:03:26.122Z,1012.75
2019-05-03T08:05:26.141Z,1012.78
2019-05-03T08:06:26.134Z,1012.77
2019-05-03T08:07:26.154Z,1012.75
2019-05-03T08:08:26.153Z,1012.76
2019-05-03T08:11:26.113Z,1012.75
2019-05-03T08:12:26.165Z,1012.77
2019-05-03T08:14:26.160Z,1012.74
2019-05-03T08:15:26.165Z,1012.67
2019-05-03T08:16:26.136Z,1012.74
2019-05-03T08:17:26.165Z,1012.71
2019-05-03T08:19:27.112Z,1012.75
2019-05-03T08:20:26.147Z,1012.75
2019-05-03T08:21:26.172Z,1012.76
2019-05-03T08:22:26.160Z,1012.71
2019-05-03T08:25:26.138Z,1012.70
2019-05-03T08:26:26.175Z,1012.69
2019-05-03T08:27:26.173Z,1012.70
2019-05-03T08:28:26.161Z,1012.70
2019-05-03T08:30:26.157Z,1012.70
2019-05-03T08:31:26.644Z,1012.62
2019-05-03T08:32:26.166Z,1012.70
2019-05-03T08:33:26.175Z,1012.66
2019-05-03T08:35:26.159Z,1012.67
2019-05-03T08:36:26.149Z,1012.70
2019-05-03T08:37:27.967Z,1012.63
2019-05-03T08:38:26.200Z,1012.63
2019-05-03T08:40:26.189Z,1012.67
2019-05-03T08:41:26.191Z,1012.71
2019-05-03T08:42:26.195Z,1012.68
2019-05-03T08:43:26.200Z,1012.65
2019-05-03T08:45:26.160Z,1012.73
2019-05-03T08:46:26.208Z,1012.71
2019-05-03T08:47:26.215Z,1012.74
2019-05-03T08:48:26.147Z,1012.75
2019-05-03T08:50:26.242Z,1012.74
2019-05-03T08:51:26.198Z,1012.73
2019-05-03T08:52:26.214Z,1012.72
2019-05-03T08:53:26.190Z,1012.75
2019-05-03T08:56:26.195Z,1012.75
2019-05-03T08:57:26.192Z,1012.72
2019-05-03T08:58:26.217Z,1012.74
2019-05-03T08:59:29.940Z,1012.73
2019-05-03T09:01:26.185Z,1012.74
2019-05-03T09:02:26.208Z,1012.73
2019-05-03T09:03:26.198Z,1012.80
2019-05-03T09:04:36.137Z,1012.79
2019-05-03T09:07:26.246Z,1012.75
2019-05-03T09:08:26.198Z,1012.71
2019-05-03T09:09:26.207Z,1012.80
2019-05-03T09:10:26.194Z,1012.82
2019-05-03T09:12:26.227Z,1012.75
2019-05-03T09:13:26.221Z,1012.76
2019-05-03T09:14:38.783Z,1012.75
2019-05-03T09:15:26.196Z,1012.76
2019-05-03T09:17:26.234Z,1012.75
2019-05-03T09:18:26.228Z,1012.77
2019-05-03T09:19:26.232Z,1012.74
2019-05-03T09:20:26.253Z,1012.71
2019-05-03T09:22:26.290Z,1012.74
2019-05-03T09:23:26.394Z,1012.72
2019-05-03T09:24:26.273Z,1012.75
2019-05-03T09:25:26.246Z,1012.76
2019-05-03T09:27:26.209Z,1012.77
2019-05-03T09:28:28.915Z,1012.68
2019-05-03T09:29:26.204Z,1012.75
2019-05-03T09:30:26.249Z,1012.72
2019-05-03T09:33:26.214Z,1012.65
2019-05-03T09:34:26.208Z,1012.63
2019-05-03T09:35:30.441Z,1012.66
2019-05-03T09:36:26.237Z,1012.61
2019-05-03T09:38:26.231Z,1012.65
2019-05-03T09:39:26.214Z,1012.60
2019-05-03T09:40:26.213Z,1012.57
2019-05-03T09:41:26.251Z,1012.54
2019-05-03T09:43:26.249Z,1012.46
2019-05-03T09:44:26.250Z,1012.50
2019-05-03T09:45:26.271Z,1012.56
2019-05-03T09:46:26.641Z,1012.56
2019-05-03T09:48:26.357Z,1012.53
2019-05-03T09:49:26.192Z,1012.51
2019-05-03T09:50:26.292Z,1012.50
2019-05-03T09:51:26.259Z,1012.50
2019-05-03T09:53:26.245Z,1012.53
2019-05-03T09:55:26.281Z,1012.48
2019-05-03T09:56:26.292Z,1012.47
2019-05-03T09:57:26.303Z,1012.48
2019-05-03T09:58:26.508Z,1012.42
2019-05-03T10:00:26.279Z,1012.43
2019-05-03T10:01:26.268Z,1012.42
2019-05-03T10:02:26.259Z,1012.44
2019-05-03T10:03:26.288Z,1012.45
2019-05-03T10:05:26.255Z,1012.39
2019-05-03T10:06:26.278Z,1012.36
2019-05-03T10:07:26.268Z,1012.38
2019-05-03T10:08:26.254Z,1012.39
2019-05-03T10:10:26.276Z,1012.39
2019-05-03T10:11:26.265Z,1012.37
2019-05-03T10:12:26.297Z,1012.31
2019-05-03T10:13:27.249Z,1012.34
2019-05-03T10:15:26.263Z,1012.42
2019-05-03T10:16:26.289Z,1012.36
2019-05-03T10:17:26.269Z,1012.39
2019-05-03T10:18:26.471Z,1012.43
2019-05-03T10:20:26.270Z,1012.44
2019-05-03T10:21:26.286Z,1012.39
2019-05-03T10:22:26.284Z,1012.45
2019-05-03T10:23:26.318Z,1012.48
2019-05-03T10:25:26.325Z,1012.50
2019-05-03T10:26:26.252Z,1012.42
2019-05-03T10:28:26.295Z,1012.45
2019-05-03T10:29:26.295Z,1012.55
2019-05-03T10:30:26.310Z,1012.47
2019-05-03T10:31:26.305Z,1012.47
2019-05-03T10:33:26.308Z,1012.39
2019-05-03T10:34:26.310Z,1012.42
2019-05-03T10:35:26.307Z,1012.51
2019-05-03T10:36:26.279Z,1012.46
2019-05-03T10:39:26.399Z,1012.53
2019-05-03T10:40:26.272Z,1012.56
2019-05-03T10:41:26.551Z,1012.51
2019-05-03T10:42:26.674Z,1012.59
2019-05-03T10:45:28.134Z,1012.42
2019-05-03T10:46:26.327Z,1012.45
2019-05-03T10:47:26.314Z,1012.41
2019-05-03T10:48:26.337Z,1012.47
2019-05-03T10:50:26.295Z,1012.48
2019-05-03T10:51:26.307Z,1012.40
2019-05-03T10:52:26.300Z,1012.39
2019-05-03T10:53:26.345Z,1012.43
2019-05-03T10:55:26.339Z,1012.39
2019-05-03T10:56:26.847Z,1012.38
2019-05-03T10:57:26.313Z,1012.41
2019-05-03T10:58:26.303Z,1012.39
2019-05-03T11:00:44.246Z,1012.45
2019-05-03T11:01:26.270Z,1012.49
2019-05-03T11:02:26.344Z,1012.37
2019-05-03T11:03:26.289Z,1012.40
2019-05-03T11:06:26.309Z,1012.45
2019-05-03T11:07:26.334Z,1012.48
2019-05-03T11:08:26.345Z,1012.46
2019-05-03T11:09:26.305Z,1012.44
2019-05-03T11:11:26.355Z,1012.50
2019-05-03T11:12:27.205Z,1012.53
2019-05-03T11:13:26.622Z,1012.47
2019-05-03T11:15:26.339Z,1012.45
2019-05-03T11:16:26.317Z,1012.40
2019-05-03T11:17:26.356Z,1012.42
2019-05-03T11:18:26.320Z,1012.44
2019-05-03T11:20:30.783Z,1012.38
2019-05-03T11:21:28.809Z,1012.44
2019-05-03T11:22:26.345Z,1012.43
2019-05-03T11:23:26.325Z,1012.36
2019-05-03T11:25:26.333Z,1012.35
2019-05-03T11:26:26.310Z,1012.39
2019-05-03T11:27:26.350Z,1012.32
2019-05-03T11:28:26.342Z,1012.35
2019-05-03T11:30:26.317Z,1012.31
2019-05-03T11:31:26.371Z,1012.28
2019-05-03T11:32:26.387Z,1012.28
2019-05-03T11:33:27.039Z,1012.28
2019-05-03T11:34:30.419Z,1012.24
2019-05-03T11:36:31.858Z,1012.21
2019-05-03T11:37:31.064Z,1012.24
2019-05-03T11:38:27.686Z,1012.23
2019-05-03T11:39:29.229Z,1012.16
2019-05-03T11:40:26.887Z,1012.21
2019-05-03T11:42:31.410Z,1012.19
2019-05-03T11:43:27.669Z,1012.15
2019-05-03T11:44:29.586Z,1012.20
2019-05-03T11:45:29.773Z,1012.16
2019-05-03T11:46:30.190Z,1012.15
2019-05-03T11:48:34.741Z,1012.14
2019-05-03T11:50:26.744Z,1012.10
2019-05-03T11:51:38.948Z,1012.10
2019-05-03T11:52:26.353Z,1012.15
2019-05-03T11:53:35.596Z,1012.19
2019-05-03T11:55:26.977Z,1012.15
2019-05-03T11:56:26.388Z,1012.17
2019-05-03T11:57:26.659Z,1012.13
2019-05-03T11:58:27.316Z,1012.10
2019-05-03T11:59:42.027Z,1012.10
2019-05-03T12:01:26.360Z,1012.14
2019-05-03T12:02:26.385Z,1012.13
2019-05-03T12:03:26.355Z,1012.14
2019-05-03T12:04:26.486Z,1012.08
2019-05-03T12:05:26.431Z,1012.08
2019-05-03T12:07:38.296Z,1012.09
2019-05-03T12:08:26.373Z,1012.09
2019-05-03T12:09:26.557Z,1012.13
2019-05-03T12:10:33.163Z,1012.06
2019-05-03T12:11:26.393Z,1012.14
2019-05-03T12:13:26.407Z,1012.07
2019-05-03T12:14:26.415Z,1012.03
2019-05-03T12:15:26.411Z,1012.07
2019-05-03T12:17:06.734Z,1011.99
2019-05-03T12:17:29.002Z,1011.98
2019-05-03T12:19:31.015Z,1011.90
2019-05-03T12:20:28.615Z,1011.91
2019-05-03T12:21:27.453Z,1011.91
2019-05-03T12:22:26.864Z,1011.87
2019-05-03T12:23:26.781Z,1011.92
2019-05-03T12:25:27.005Z,1012.02
2019-05-03T12:26:39.918Z,1011.95
2019-05-03T12:27:26.425Z,1011.94
2019-05-03T12:28:26.417Z,1011.90
2019-05-03T12:29:26.377Z,1011.87
2019-05-03T12:31:36.680Z,1011.79
2019-05-03T12:32:26.438Z,1011.83
2019-05-03T12:33:26.422Z,1011.80
2019-05-03T12:34:26.390Z,1011.82
2019-05-03T12:36:26.440Z,1011.81
2019-05-03T12:37:26.540Z,1011.86
2019-05-03T12:38:26.414Z,1011.91
2019-05-03T12:39:30.051Z,1011.86
2019-05-03T12:41:26.407Z,1011.81
2019-05-03T12:42:26.471Z,1011.80
2019-05-03T12:43:26.401Z,1011.82
2019-05-03T12:44:26.434Z,1011.81
2019-05-03T12:46:26.538Z,1011.75
2019-05-03T12:47:26.394Z,1011.80
2019-05-03T12:48:26.494Z,1011.77
2019-05-03T12:49:26.392Z,1011.78
2019-05-03T12:51:26.478Z,1011.80
2019-05-03T12:52:27.202Z,1011.71
2019-05-03T12:53:26.491Z,1011.67
2019-05-03T12:54:26.406Z,1011.69
2019-05-03T12:56:32.304Z,1011.70
2019-05-03T12:57:26.431Z,1011.64
2019-05-03T12:58:26.447Z,1011.62
2019-05-03T12:59:26.753Z,1011.71
2019-05-03T13:00:26.448Z,1011.70
2019-05-03T13:02:26.399Z,1011.64
2019-05-03T13:03:26.575Z,1011.66
2019-05-03T13:04:26.415Z,1011.71
2019-05-03T13:05:26.473Z,1011.59
2019-05-03T13:08:26.475Z,1011.65
2019-05-03T13:09:26.444Z,1011.63
2019-05-03T13:10:26.639Z,1011.70
2019-05-03T13:11:26.485Z,1011.66
2019-05-03T13:14:26.477Z,1011.64
2019-05-03T13:15:26.472Z,1011.62
2019-05-03T13:16:26.472Z,1011.53
2019-05-03T13:17:26.497Z,1011.57
2019-05-03T13:19:26.437Z,1011.57
2019-05-03T13:20:29.417Z,1011.57
2019-05-03T13:21:26.588Z,1011.51
2019-05-03T13:22:26.488Z,1011.50
2019-05-03T13:23:26.432Z,1011.55
2019-05-03T13:25:26.543Z,1011.52
2019-05-03T13:26:26.504Z,1011.49
2019-05-03T13:27:26.485Z,1011.56
2019-05-03T13:28:26.459Z,1011.56
2019-05-03T13:31:26.473Z,1011.57
2019-05-03T13:32:26.520Z,1011.57
2019-05-03T13:33:26.454Z,1011.55
2019-05-03T13:35:27.209Z,1011.55
2019-05-03T13:36:26.431Z,1011.50
2019-05-03T13:37:26.456Z,1011.53
2019-05-03T13:38:26.420Z,1011.49
2019-05-03T13:41:26.474Z,1011.48
2019-05-03T13:42:26.449Z,1011.42
2019-05-03T13:43:26.486Z,1011.41
2019-05-03T13:44:26.498Z,1011.35
2019-05-03T13:46:26.483Z,1011.44
2019-05-03T13:47:26.432Z,1011.42
2019-05-03T13:48:26.614Z,1011.41
2019-05-03T13:49:26.670Z,1011.42
2019-05-03T13:52:26.507Z,1011.35
2019-05-03T13:53:26.662Z,1011.37
2019-05-03T13:54:26.507Z,1011.32
2019-05-03T13:55:26.527Z,1011.32
2019-05-03T13:56:26.485Z,1011.31
2019-05-03T13:58:26.574Z,1011.27
2019-05-03T13:59:26.489Z,1011.29
2019-05-03T14:00:26.503Z,1011.25
2019-05-03T14:01:26.545Z,1011.31
2019-05-03T14:03:26.831Z,1011.28
2019-05-03T14:04:26.468Z,1011.27
2019-05-03T14:05:26.489Z,1011.34
2019-05-03T14:06:26.505Z,1011.26
2019-05-03T14:08:26.574Z,1011.27
2019-05-03T14:09:26.483Z,1011.28
2019-05-03T14:10:26.483Z,1011.29
2019-05-03T14:11:26.475Z,1011.27
2019-05-03T14:13:26.489Z,1011.26
2019-05-03T14:14:26.542Z,1011.25
2019-05-03T14:15:26.505Z,1011.24
2019-05-03T14:16:26.471Z,1011.34
2019-05-03T14:18:26.487Z,1011.26
2019-05-03T14:19:26.516Z,1011.24
2019-05-03T14:20:26.487Z,1011.20
2019-05-03T14:21:26.519Z,1011.23
2019-05-03T14:24:26.524Z,1011.30
2019-05-03T14:25:26.534Z,1011.26
2019-05-03T14:26:26.525Z,1011.16
2019-05-03T14:27:26.532Z,1011.23
2019-05-03T14:29:26.508Z,1011.15
2019-05-03T14:30:26.522Z,1011.17
2019-05-03T14:31:26.544Z,1011.16
2019-05-03T14:32:28.897Z,1011.13
2019-05-03T14:34:26.991Z,1011.17
2019-05-03T14:35:26.549Z,1011.17
2019-05-03T14:36:26.539Z,1011.23
2019-05-03T14:37:26.524Z,1011.19
2019-05-03T14:39:26.523Z,1011.18
2019-05-03T14:40:26.526Z,1011.26
2019-05-03T14:41:26.547Z,1011.24
2019-05-03T14:42:26.513Z,1011.25
2019-05-03T14:44:26.512Z,1011.26
2019-05-03T14:45:26.493Z,1011.28
2019-05-03T14:46:32.527Z,1011.24
2019-05-03T14:47:26.533Z,1011.24
2019-05-03T14:49:26.543Z,1011.25
2019-05-03T14:50:26.562Z,1011.24
2019-05-03T14:51:26.553Z,1011.24
2019-05-03T14:52:28.486Z,1011.25
2019-05-03T14:54:26.551Z,1011.28
2019-05-03T14:55:26.659Z,1011.31
2019-05-03T14:56:26.537Z,1011.29
2019-05-03T14:57:26.656Z,1011.23
2019-05-03T14:58:26.540Z,1011.24
2019-05-03T15:00:26.757Z,1011.29
2019-05-03T15:01:26.576Z,1011.23
2019-05-03T15:02:39.806Z,1011.22
2019-05-03T15:03:26.902Z,1011.20
2019-05-03T15:05:26.552Z,1011.21
2019-05-03T15:06:26.564Z,1011.22
2019-05-03T15:07:26.534Z,1011.19
2019-05-03T15:08:26.579Z,1011.18
2019-05-03T15:11:26.549Z,1011.23
2019-05-03T15:12:26.545Z,1011.16
2019-05-03T15:13:26.549Z,1011.25
2019-05-03T15:14:26.533Z,1011.25
2019-05-03T15:16:26.590Z,1011.20
2019-05-03T15:17:26.589Z,1011.17
2019-05-03T15:18:26.560Z,1011.24
2019-05-03T15:19:26.581Z,1011.18
2019-05-03T15:21:26.576Z,1011.19
2019-05-03T15:22:26.721Z,1011.17
2019-05-03T15:23:26.652Z,1011.19
2019-05-03T15:24:26.729Z,1011.19
2019-05-03T15:26:26.731Z,1011.14
2019-05-03T15:27:26.573Z,1011.14
2019-05-03T15:28:26.695Z,1011.16
2019-05-03T15:29:26.554Z,1011.22
2019-05-03T15:30:26.591Z,1011.15
2019-05-03T15:32:26.591Z,1011.12
2019-05-03T15:33:26.587Z,1011.17
2019-05-03T15:34:26.601Z,1011.17
2019-05-03T15:35:26.619Z,1011.19
2019-05-03T15:36:26.612Z,1011.13
2019-05-03T15:38:26.572Z,1011.15
2019-05-03T15:39:26.605Z,1011.12
2019-05-03T15:40:26.591Z,1011.16
2019-05-03T15:41:26.606Z,1011.16